< < Back
Terminal Aerodrome Forecast


Current Version              Previous Versions:   1  2  3  4  5  6  7  8  9  

Terminal Aerodrome Forecast

610
FTUS44 KBMX 280000 RRA
TAFBHM
TAF
KBHM 280007Z 2800/2824 02005KT P6SM SCT250
     FM280900 05004KT P6SM OVC120=

Latest METAR

459
SAUS70 KWBC 281400 RRD
MTRBHM
METAR KBHM 281353Z 09006KT 10SM BKN100 02/M07 A3053 RMK AO2 SLP342
T00221072


USA.gov is the U.S. government's official web portal to all federal, state and local government web resources and services.